sensor_id;sensor_type;location;lat;lon;timestamp;temperature;humidity
40822;DHT22;26542;50.836;5.356;2023-01-15T00:02:05;8.40;99.90
40822;DHT22;26542;50.836;5.356;2023-01-15T00:04:31;8.50;99.90
40822;DHT22;26542;50.836;5.356;2023-01-15T00:06:56;8.40;99.90
40822;DHT22;26542;50.836;5.356;2023-01-15T00:09:22;8.40;99.90
40822;DHT22;26542;50.836;5.356;2023-01-15T00:11:48;8.30;99.90
40822;DHT22;26542;50.836;5.356;2023-01-15T00:14:13;8.30;99.90
40822;DHT22;26542;50.836;5.356;2023-01-15T00:16:39;8.20;99.90
40822;DHT22;26542;50.836;5.356;2023-01-15T00:19:05;8.20;99.90
40822;DHT22;26542;50.836;5.356;2023-01-15T00:21:33;8.20;99.90
40822;DHT22;26542;50.836;5.356;2023-01-15T00:23:59;8.30;99.90
40822;DHT22;26542;50.836;5.356;2023-01-15T00:26:43;8.30;99.90
40822;DHT22;26542;50.836;5.356;2023-01-15T00:29:27;8.30;99.90
40822;DHT22;26542;50.836;5.356;2023-01-15T00:32:02;8.40;99.90
40822;DHT22;26542;50.836;5.356;2023-01-15T00:34:29;8.30;99.90
40822;DHT22;26542;50.836;5.356;2023-01-15T00:36:56;8.30;99.90
40822;DHT22;26542;50.836;5.356;2023-01-15T00:39:21;8.30;99.90
40822;DHT22;26542;50.836;5.356;2023-01-15T00:41:48;8.40;99.90
40822;DHT22;26542;50.836;5.356;2023-01-15T00:44:14;8.40;99.90
40822;DHT22;26542;50.836;5.356;2023-01-15T00:46:40;8.40;99.90
40822;DHT22;26542;50.836;5.356;2023-01-15T00:49:07;8.40;99.90
40822;DHT22;26542;50.836;5.356;2023-01-15T00:51:32;8.40;99.90
40822;DHT22;26542;50.836;5.356;2023-01-15T00:53:59;8.40;99.90
40822;DHT22;26542;50.836;5.356;2023-01-15T00:56:24;8.40;99.90
40822;DHT22;26542;50.836;5.356;2023-01-15T00:58:50;8.50;99.90
40822;DHT22;26542;50.836;5.356;2023-01-15T01:01:16;8.50;99.90
40822;DHT22;26542;50.836;5.356;2023-01-15T01:03:41;8.50;99.90
40822;DHT22;26542;50.836;5.356;2023-01-15T01:06:07;8.50;99.90
40822;DHT22;26542;50.836;5.356;2023-01-15T01:08:34;8.40;99.90
40822;DHT22;26542;50.836;5.356;2023-01-15T01:11:08;8.50;99.90
40822;DHT22;26542;50.836;5.356;2023-01-15T01:13:36;8.50;99.90
40822;DHT22;26542;50.836;5.356;2023-01-15T01:16:02;8.50;99.90
40822;DHT22;26542;50.836;5.356;2023-01-15T01:18:28;8.50;99.90
40822;DHT22;26542;50.836;5.356;2023-01-15T01:20:54;8.50;99.90
40822;DHT22;26542;50.836;5.356;2023-01-15T01:23:22;8.50;99.90
40822;DHT22;26542;50.836;5.356;2023-01-15T01:25:48;8.40;99.90
40822;DHT22;26542;50.836;5.356;2023-01-15T01:28:14;8.40;99.90
40822;DHT22;26542;50.836;5.356;2023-01-15T01:30:40;8.30;99.90
40822;DHT22;26542;50.836;5.356;2023-01-15T01:33:06;8.30;99.90
40822;DHT22;26542;50.836;5.356;2023-01-15T01:35:32;8.30;99.90
40822;DHT22;26542;50.836;5.356;2023-01-15T01:37:58;8.30;99.90
40822;DHT22;26542;50.836;5.356;2023-01-15T01:40:23;8.30;99.90
40822;DHT22;26542;50.836;5.356;2023-01-15T01:42:49;8.30;99.90
40822;DHT22;26542;50.836;5.356;2023-01-15T01:45:20;8.30;99.90
40822;DHT22;26542;50.836;5.356;2023-01-15T01:47:50;8.20;99.90
40822;DHT22;26542;50.836;5.356;2023-01-15T01:50:16;8.30;99.90
40822;DHT22;26542;50.836;5.356;2023-01-15T01:52:50;8.30;99.90
40822;DHT22;26542;50.836;5.356;2023-01-15T01:55:19;8.40;99.90
40822;DHT22;26542;50.836;5.356;2023-01-15T01:57:47;8.40;99.90
40822;DHT22;26542;50.836;5.356;2023-01-15T02:00:14;8.30;99.90
40822;DHT22;26542;50.836;5.356;2023-01-15T02:02:43;8.30;99.90
40822;DHT22;26542;50.836;5.356;2023-01-15T02:05:13;8.30;99.90
40822;DHT22;26542;50.836;5.356;2023-01-15T02:07:40;8.20;99.90
40822;DHT22;26542;50.836;5.356;2023-01-15T02:10:11;8.20;99.90
40822;DHT22;26542;50.836;5.356;2023-01-15T02:12:38;8.20;99.90
40822;DHT22;26542;50.836;5.356;2023-01-15T02:17:53;8.20;99.90
40822;DHT22;26542;50.836;5.356;2023-01-15T02:20:30;8.20;99.90
40822;DHT22;26542;50.836;5.356;2023-01-15T02:23:12;8.20;99.90
40822;DHT22;26542;50.836;5.356;2023-01-15T02:28:27;8.20;99.90
40822;DHT22;26542;50.836;5.356;2023-01-15T02:34:06;8.20;99.90
40822;DHT22;26542;50.836;5.356;2023-01-15T02:36:38;8.10;99.90
40822;DHT22;26542;50.836;5.356;2023-01-15T02:39:07;8.10;99.90
40822;DHT22;26542;50.836;5.356;2023-01-15T02:41:43;8.10;99.90
40822;DHT22;26542;50.836;5.356;2023-01-15T02:44:11;8.00;99.90
40822;DHT22;26542;50.836;5.356;2023-01-15T02:46:39;8.10;99.90
40822;DHT22;26542;50.836;5.356;2023-01-15T02:49:08;8.20;99.90
40822;DHT22;26542;50.836;5.356;2023-01-15T02:51:45;8.10;99.90
40822;DHT22;26542;50.836;5.356;2023-01-15T02:54:14;8.10;99.90
40822;DHT22;26542;50.836;5.356;2023-01-15T02:56:43;8.10;99.90
40822;DHT22;26542;50.836;5.356;2023-01-15T02:59:14;8.10;99.90
40822;DHT22;26542;50.836;5.356;2023-01-15T03:01:45;8.10;99.90
40822;DHT22;26542;50.836;5.356;2023-01-15T03:04:31;8.10;99.90
40822;DHT22;26542;50.836;5.356;2023-01-15T03:07:11;8.10;99.90
40822;DHT22;26542;50.836;5.356;2023-01-15T03:09:38;8.10;99.90
40822;DHT22;26542;50.836;5.356;2023-01-15T03:12:26;8.00;99.90
40822;DHT22;26542;50.836;5.356;2023-01-15T03:17:28;8.10;99.90
40822;DHT22;26542;50.836;5.356;2023-01-15T03:20:11;8.00;99.90
40822;DHT22;26542;50.836;5.356;2023-01-15T03:22:40;7.90;99.90
40822;DHT22;26542;50.836;5.356;2023-01-15T03:25:12;7.90;99.90
40822;DHT22;26542;50.836;5.356;2023-01-15T03:27:40;7.90;99.90
40822;DHT22;26542;50.836;5.356;2023-01-15T03:30:19;7.80;99.90
40822;DHT22;26542;50.836;5.356;2023-01-15T03:32:46;7.90;99.90
40822;DHT22;26542;50.836;5.356;2023-01-15T03:35:38;7.90;99.90
40822;DHT22;26542;50.836;5.356;2023-01-15T03:38:06;7.90;99.90
40822;DHT22;26542;50.836;5.356;2023-01-15T03:40:35;8.00;99.90
40822;DHT22;26542;50.836;5.356;2023-01-15T03:43:06;8.00;99.90
40822;DHT22;26542;50.836;5.356;2023-01-15T03:45:53;8.00;99.90
40822;DHT22;26542;50.836;5.356;2023-01-15T03:48:30;7.90;99.90
40822;DHT22;26542;50.836;5.356;2023-01-15T03:51:07;8.00;99.90
40822;DHT22;26542;50.836;5.356;2023-01-15T03:54:00;7.90;99.90
40822;DHT22;26542;50.836;5.356;2023-01-15T03:56:37;7.90;99.90
40822;DHT22;26542;50.836;5.356;2023-01-15T03:59:20;7.90;99.90
40822;DHT22;26542;50.836;5.356;2023-01-15T04:01:48;7.90;99.90
40822;DHT22;26542;50.836;5.356;2023-01-15T04:04:15;7.80;99.90
40822;DHT22;26542;50.836;5.356;2023-01-15T04:06:42;7.80;99.90
40822;DHT22;26542;50.836;5.356;2023-01-15T04:09:09;7.90;99.90
40822;DHT22;26542;50.836;5.356;2023-01-15T04:11:36;7.90;99.90
40822;DHT22;26542;50.836;5.356;2023-01-15T04:14:02;8.00;99.90
40822;DHT22;26542;50.836;5.356;2023-01-15T04:16:30;8.00;99.90
40822;DHT22;26542;50.836;5.356;2023-01-15T04:18:56;8.00;99.90
40822;DHT22;26542;50.836;5.356;2023-01-15T04:21:23;7.90;99.90
40822;DHT22;26542;50.836;5.356;2023-01-15T04:23:48;7.90;99.90
40822;DHT22;26542;50.836;5.356;2023-01-15T04:26:14;7.90;99.90
40822;DHT22;26542;50.836;5.356;2023-01-15T04:28:41;7.90;99.90
40822;DHT22;26542;50.836;5.356;2023-01-15T04:31:07;7.80;99.90
40822;DHT22;26542;50.836;5.356;2023-01-15T04:33:32;7.80;99.90
40822;DHT22;26542;50.836;5.356;2023-01-15T04:35:59;7.80;99.90
40822;DHT22;26542;50.836;5.356;2023-01-15T04:38:25;7.80;99.90
40822;DHT22;26542;50.836;5.356;2023-01-15T04:40:51;7.90;99.90
40822;DHT22;26542;50.836;5.356;2023-01-15T04:43:35;7.90;99.90
40822;DHT22;26542;50.836;5.356;2023-01-15T04:46:21;7.90;99.90
40822;DHT22;26542;50.836;5.356;2023-01-15T04:48:47;7.90;99.90
40822;DHT22;26542;50.836;5.356;2023-01-15T04:51:14;7.80;99.90
40822;DHT22;26542;50.836;5.356;2023-01-15T04:53:40;7.90;99.90
40822;DHT22;26542;50.836;5.356;2023-01-15T04:56:06;7.80;99.90
40822;DHT22;26542;50.836;5.356;2023-01-15T04:58:33;7.80;99.90
40822;DHT22;26542;50.836;5.356;2023-01-15T05:00:58;7.80;99.90
40822;DHT22;26542;50.836;5.356;2023-01-15T05:03:29;7.70;99.90
40822;DHT22;26542;50.836;5.356;2023-01-15T05:05:55;7.70;99.90
40822;DHT22;26542;50.836;5.356;2023-01-15T05:08:25;7.60;99.90
40822;DHT22;26542;50.836;5.356;2023-01-15T05:10:50;7.60;99.90
40822;DHT22;26542;50.836;5.356;2023-01-15T05:13:16;7.60;99.90
40822;DHT22;26542;50.836;5.356;2023-01-15T05:15:42;7.60;99.90
40822;DHT22;26542;50.836;5.356;2023-01-15T05:18:11;7.60;99.90
40822;DHT22;26542;50.836;5.356;2023-01-15T05:20:40;7.50;99.90
40822;DHT22;26542;50.836;5.356;2023-01-15T05:23:06;7.40;99.90
40822;DHT22;26542;50.836;5.356;2023-01-15T05:25:35;7.40;99.90
40822;DHT22;26542;50.836;5.356;2023-01-15T05:28:00;7.40;99.90
40822;DHT22;26542;50.836;5.356;2023-01-15T05:30:26;7.30;99.90
40822;DHT22;26542;50.836;5.356;2023-01-15T05:32:52;7.40;99.90
40822;DHT22;26542;50.836;5.356;2023-01-15T05:35:18;7.40;99.90
40822;DHT22;26542;50.836;5.356;2023-01-15T05:37:43;7.40;99.90
40822;DHT22;26542;50.836;5.356;2023-01-15T05:40:09;7.40;99.90
40822;DHT22;26542;50.836;5.356;2023-01-15T05:42:35;7.40;99.90
40822;DHT22;26542;50.836;5.356;2023-01-15T05:45:01;7.40;99.90
40822;DHT22;26542;50.836;5.356;2023-01-15T05:47:27;7.40;99.90
40822;DHT22;26542;50.836;5.356;2023-01-15T05:49:52;7.30;99.90
40822;DHT22;26542;50.836;5.356;2023-01-15T05:52:18;7.30;99.90
40822;DHT22;26542;50.836;5.356;2023-01-15T05:54:44;7.30;99.90
40822;DHT22;26542;50.836;5.356;2023-01-15T05:57:11;7.30;99.90
40822;DHT22;26542;50.836;5.356;2023-01-15T05:59:37;7.40;99.90
40822;DHT22;26542;50.836;5.356;2023-01-15T06:02:04;7.30;99.90
40822;DHT22;26542;50.836;5.356;2023-01-15T06:04:30;7.30;99.90
40822;DHT22;26542;50.836;5.356;2023-01-15T06:06:56;7.20;99.90
40822;DHT22;26542;50.836;5.356;2023-01-15T06:09:23;7.30;99.90
40822;DHT22;26542;50.836;5.356;2023-01-15T06:11:49;7.30;99.90
40822;DHT22;26542;50.836;5.356;2023-01-15T06:14:15;7.30;99.90
40822;DHT22;26542;50.836;5.356;2023-01-15T06:16:41;7.20;99.90
40822;DHT22;26542;50.836;5.356;2023-01-15T06:19:08;7.10;99.90
40822;DHT22;26542;50.836;5.356;2023-01-15T06:21:34;7.10;99.90
40822;DHT22;26542;50.836;5.356;2023-01-15T06:24:00;7.10;99.90
40822;DHT22;26542;50.836;5.356;2023-01-15T06:26:26;7.10;99.90
40822;DHT22;26542;50.836;5.356;2023-01-15T06:28:52;7.00;99.90
40822;DHT22;26542;50.836;5.356;2023-01-15T06:31:20;7.00;99.90
40822;DHT22;26542;50.836;5.356;2023-01-15T06:33:46;7.00;99.90
40822;DHT22;26542;50.836;5.356;2023-01-15T06:36:15;7.00;99.90
40822;DHT22;26542;50.836;5.356;2023-01-15T06:38:41;7.00;99.90
40822;DHT22;26542;50.836;5.356;2023-01-15T06:41:13;7.00;99.90
40822;DHT22;26542;50.836;5.356;2023-01-15T06:43:58;7.00;99.90
40822;DHT22;26542;50.836;5.356;2023-01-15T06:46:46;7.00;99.90
40822;DHT22;26542;50.836;5.356;2023-01-15T06:49:31;7.00;99.90
40822;DHT22;26542;50.836;5.356;2023-01-15T06:51:57;6.80;99.90
40822;DHT22;26542;50.836;5.356;2023-01-15T06:54:23;6.80;99.90
40822;DHT22;26542;50.836;5.356;2023-01-15T06:56:49;6.70;99.90
40822;DHT22;26542;50.836;5.356;2023-01-15T06:59:15;6.60;99.90
40822;DHT22;26542;50.836;5.356;2023-01-15T07:01:41;6.50;99.90
40822;DHT22;26542;50.836;5.356;2023-01-15T07:04:07;6.50;99.90
40822;DHT22;26542;50.836;5.356;2023-01-15T07:06:32;6.50;99.90
40822;DHT22;26542;50.836;5.356;2023-01-15T07:08:58;6.40;99.90
40822;DHT22;26542;50.836;5.356;2023-01-15T07:11:25;6.40;99.90
40822;DHT22;26542;50.836;5.356;2023-01-15T07:13:50;6.50;99.90
40822;DHT22;26542;50.836;5.356;2023-01-15T07:16:30;6.60;99.90
40822;DHT22;26542;50.836;5.356;2023-01-15T07:18:56;6.60;99.90
40822;DHT22;26542;50.836;5.356;2023-01-15T07:21:22;6.70;99.90
40822;DHT22;26542;50.836;5.356;2023-01-15T07:23:48;6.60;99.90
40822;DHT22;26542;50.836;5.356;2023-01-15T07:26:14;6.70;99.90
40822;DHT22;26542;50.836;5.356;2023-01-15T07:28:40;6.60;99.90
40822;DHT22;26542;50.836;5.356;2023-01-15T07:31:05;6.60;99.90
40822;DHT22;26542;50.836;5.356;2023-01-15T07:33:31;6.60;99.90
40822;DHT22;26542;50.836;5.356;2023-01-15T07:35:57;6.60;99.90
40822;DHT22;26542;50.836;5.356;2023-01-15T07:38:22;6.60;99.90
40822;DHT22;26542;50.836;5.356;2023-01-15T07:40:49;6.60;99.90
40822;DHT22;26542;50.836;5.356;2023-01-15T07:43:34;6.60;99.90
40822;DHT22;26542;50.836;5.356;2023-01-15T07:46:19;6.60;99.90
40822;DHT22;26542;50.836;5.356;2023-01-15T07:49:10;6.60;99.90
40822;DHT22;26542;50.836;5.356;2023-01-15T07:51:55;6.60;99.90
40822;DHT22;26542;50.836;5.356;2023-01-15T07:54:21;6.60;99.90
40822;DHT22;26542;50.836;5.356;2023-01-15T07:56:47;6.60;99.90
40822;DHT22;26542;50.836;5.356;2023-01-15T07:59:13;6.60;99.90
40822;DHT22;26542;50.836;5.356;2023-01-15T08:01:38;6.50;99.90
40822;DHT22;26542;50.836;5.356;2023-01-15T08:04:04;6.50;99.90
40822;DHT22;26542;50.836;5.356;2023-01-15T08:06:30;6.50;99.90
40822;DHT22;26542;50.836;5.356;2023-01-15T08:08:55;6.50;99.90
40822;DHT22;26542;50.836;5.356;2023-01-15T08:11:21;6.50;99.90
40822;DHT22;26542;50.836;5.356;2023-01-15T08:14:05;6.40;99.90
40822;DHT22;26542;50.836;5.356;2023-01-15T08:16:49;6.40;99.90
40822;DHT22;26542;50.836;5.356;2023-01-15T08:19:15;6.40;99.90
40822;DHT22;26542;50.836;5.356;2023-01-15T08:21:40;6.40;99.90
40822;DHT22;26542;50.836;5.356;2023-01-15T08:24:06;6.40;99.90
40822;DHT22;26542;50.836;5.356;2023-01-15T08:26:32;6.40;99.90
40822;DHT22;26542;50.836;5.356;2023-01-15T08:28:58;6.30;99.90
40822;DHT22;26542;50.836;5.356;2023-01-15T08:31:23;6.30;99.90
40822;DHT22;26542;50.836;5.356;2023-01-15T08:33:49;6.30;99.90
40822;DHT22;26542;50.836;5.356;2023-01-15T08:36:15;6.30;99.90
40822;DHT22;26542;50.836;5.356;2023-01-15T08:38:42;6.30;99.90
40822;DHT22;26542;50.836;5.356;2023-01-15T08:41:08;6.30;99.90
40822;DHT22;26542;50.836;5.356;2023-01-15T08:43:34;6.30;99.90
40822;DHT22;26542;50.836;5.356;2023-01-15T08:46:01;6.30;99.90
40822;DHT22;26542;50.836;5.356;2023-01-15T08:48:29;6.30;99.90
40822;DHT22;26542;50.836;5.356;2023-01-15T08:50:55;6.20;99.90
40822;DHT22;26542;50.836;5.356;2023-01-15T08:53:21;6.20;99.90
40822;DHT22;26542;50.836;5.356;2023-01-15T08:55:49;6.20;99.90
40822;DHT22;26542;50.836;5.356;2023-01-15T08:58:16;6.30;99.90
40822;DHT22;26542;50.836;5.356;2023-01-15T09:00:42;6.30;99.90
40822;DHT22;26542;50.836;5.356;2023-01-15T09:03:08;6.40;99.90
40822;DHT22;26542;50.836;5.356;2023-01-15T09:05:36;6.40;99.90
40822;DHT22;26542;50.836;5.356;2023-01-15T09:08:03;6.40;99.90
40822;DHT22;26542;50.836;5.356;2023-01-15T09:10:30;6.50;99.90
40822;DHT22;26542;50.836;5.356;2023-01-15T09:12:58;6.50;99.90
40822;DHT22;26542;50.836;5.356;2023-01-15T09:15:25;6.60;99.90
40822;DHT22;26542;50.836;5.356;2023-01-15T09:17:50;6.60;99.90
40822;DHT22;26542;50.836;5.356;2023-01-15T09:20:16;6.70;99.90
40822;DHT22;26542;50.836;5.356;2023-01-15T09:22:42;6.70;99.90
40822;DHT22;26542;50.836;5.356;2023-01-15T09:25:08;6.70;99.90
40822;DHT22;26542;50.836;5.356;2023-01-15T09:27:33;6.70;99.90
40822;DHT22;26542;50.836;5.356;2023-01-15T09:29:59;6.70;99.90
40822;DHT22;26542;50.836;5.356;2023-01-15T09:32:25;6.80;99.90
40822;DHT22;26542;50.836;5.356;2023-01-15T09:34:51;6.80;99.90
40822;DHT22;26542;50.836;5.356;2023-01-15T09:37:16;6.80;99.90
40822;DHT22;26542;50.836;5.356;2023-01-15T09:39:42;6.80;99.90
40822;DHT22;26542;50.836;5.356;2023-01-15T09:55:48;6.90;99.90
40822;DHT22;26542;50.836;5.356;2023-01-15T09:58:20;6.90;99.90
40822;DHT22;26542;50.836;5.356;2023-01-15T10:00:49;6.90;99.90
40822;DHT22;26542;50.836;5.356;2023-01-15T10:06:20;6.90;99.90
40822;DHT22;26542;50.836;5.356;2023-01-15T10:08:48;6.90;99.90
40822;DHT22;26542;50.836;5.356;2023-01-15T10:13:51;7.00;99.90
40822;DHT22;26542;50.836;5.356;2023-01-15T10:16:24;7.00;99.90
40822;DHT22;26542;50.836;5.356;2023-01-15T10:18:51;7.00;99.90
40822;DHT22;26542;50.836;5.356;2023-01-15T10:21:35;6.90;99.90
40822;DHT22;26542;50.836;5.356;2023-01-15T10:26:56;6.90;99.90
40822;DHT22;26542;50.836;5.356;2023-01-15T10:30:11;6.90;99.90
40822;DHT22;26542;50.836;5.356;2023-01-15T10:41:16;6.90;99.90
40822;DHT22;26542;50.836;5.356;2023-01-15T10:46:27;6.90;99.90
40822;DHT22;26542;50.836;5.356;2023-01-15T10:49:00;6.90;99.90
40822;DHT22;26542;50.836;5.356;2023-01-15T10:51:36;7.00;99.90
40822;DHT22;26542;50.836;5.356;2023-01-15T10:54:34;6.90;99.90
40822;DHT22;26542;50.836;5.356;2023-01-15T10:57:23;6.90;99.90
40822;DHT22;26542;50.836;5.356;2023-01-15T10:59:59;6.90;99.90
40822;DHT22;26542;50.836;5.356;2023-01-15T11:05:15;6.90;99.90
40822;DHT22;26542;50.836;5.356;2023-01-15T11:07:43;6.90;99.90
40822;DHT22;26542;50.836;5.356;2023-01-15T11:10:12;6.90;99.90
40822;DHT22;26542;50.836;5.356;2023-01-15T11:12:55;6.90;99.90
40822;DHT22;26542;50.836;5.356;2023-01-15T11:15:45;6.90;99.90
40822;DHT22;26542;50.836;5.356;2023-01-15T11:18:42;6.80;99.90
40822;DHT22;26542;50.836;5.356;2023-01-15T11:21:27;6.80;99.90
40822;DHT22;26542;50.836;5.356;2023-01-15T11:23:55;6.90;99.90
40822;DHT22;26542;50.836;5.356;2023-01-15T11:26:25;7.00;99.90
40822;DHT22;26542;50.836;5.356;2023-01-15T11:28:53;7.20;99.90
40822;DHT22;26542;50.836;5.356;2023-01-15T11:31:19;7.20;99.90
40822;DHT22;26542;50.836;5.356;2023-01-15T11:33:59;7.40;99.90
40822;DHT22;26542;50.836;5.356;2023-01-15T11:36:27;7.50;99.90
40822;DHT22;26542;50.836;5.356;2023-01-15T11:38:53;7.50;99.90
40822;DHT22;26542;50.836;5.356;2023-01-15T11:44:14;7.70;99.90
40822;DHT22;26542;50.836;5.356;2023-01-15T11:46:59;7.60;99.90
40822;DHT22;26542;50.836;5.356;2023-01-15T11:49:54;7.50;99.90
40822;DHT22;26542;50.836;5.356;2023-01-15T11:52:44;7.60;99.90
40822;DHT22;26542;50.836;5.356;2023-01-15T11:55:19;7.70;99.90
40822;DHT22;26542;50.836;5.356;2023-01-15T11:57:46;7.60;99.90
40822;DHT22;26542;50.836;5.356;2023-01-15T12:02:47;7.60;99.90
40822;DHT22;26542;50.836;5.356;2023-01-15T12:05:22;7.50;99.90
40822;DHT22;26542;50.836;5.356;2023-01-15T12:07:51;7.50;99.90
40822;DHT22;26542;50.836;5.356;2023-01-15T12:10:40;7.60;99.90
40822;DHT22;26542;50.836;5.356;2023-01-15T12:13:31;7.60;99.90
40822;DHT22;26542;50.836;5.356;2023-01-15T12:16:26;7.60;99.90
40822;DHT22;26542;50.836;5.356;2023-01-15T12:21:27;7.80;99.90
40822;DHT22;26542;50.836;5.356;2023-01-15T12:29:25;7.90;99.90
40822;DHT22;26542;50.836;5.356;2023-01-15T12:32:00;7.80;99.90
40822;DHT22;26542;50.836;5.356;2023-01-15T12:34:36;7.80;99.90
40822;DHT22;26542;50.836;5.356;2023-01-15T12:37:09;7.90;99.90
40822;DHT22;26542;50.836;5.356;2023-01-15T12:42:38;7.90;99.90
40822;DHT22;26542;50.836;5.356;2023-01-15T12:45:26;7.90;99.90
40822;DHT22;26542;50.836;5.356;2023-01-15T12:53:14;7.70;99.90
40822;DHT22;26542;50.836;5.356;2023-01-15T12:58:44;7.70;99.90
40822;DHT22;26542;50.836;5.356;2023-01-15T13:01:14;7.70;99.90
40822;DHT22;26542;50.836;5.356;2023-01-15T13:06:34;7.80;99.90
40822;DHT22;26542;50.836;5.356;2023-01-15T13:11:39;8.00;99.90
40822;DHT22;26542;50.836;5.356;2023-01-15T13:14:15;7.90;99.90
40822;DHT22;26542;50.836;5.356;2023-01-15T13:19:37;7.90;99.90
40822;DHT22;26542;50.836;5.356;2023-01-15T13:22:19;7.90;99.90
40822;DHT22;26542;50.836;5.356;2023-01-15T13:27:58;7.80;99.90
40822;DHT22;26542;50.836;5.356;2023-01-15T13:31:05;7.70;99.90
40822;DHT22;26542;50.836;5.356;2023-01-15T13:33:49;7.70;99.90
40822;DHT22;26542;50.836;5.356;2023-01-15T13:36:36;7.70;99.90
40822;DHT22;26542;50.836;5.356;2023-01-15T13:39:10;7.70;99.90
40822;DHT22;26542;50.836;5.356;2023-01-15T13:41:39;7.70;99.90
40822;DHT22;26542;50.836;5.356;2023-01-15T13:44:25;7.70;99.90
40822;DHT22;26542;50.836;5.356;2023-01-15T13:47:11;7.70;99.90
40822;DHT22;26542;50.836;5.356;2023-01-15T13:49:46;7.80;99.90
40822;DHT22;26542;50.836;5.356;2023-01-15T13:54:50;7.80;99.90
40822;DHT22;26542;50.836;5.356;2023-01-15T13:57:34;7.70;99.90
40822;DHT22;26542;50.836;5.356;2023-01-15T14:00:02;7.80;99.90
40822;DHT22;26542;50.836;5.356;2023-01-15T14:02:31;7.80;99.90
40822;DHT22;26542;50.836;5.356;2023-01-15T14:04:57;7.70;99.90
40822;DHT22;26542;50.836;5.356;2023-01-15T14:07:34;7.70;99.90
40822;DHT22;26542;50.836;5.356;2023-01-15T14:13:10;7.70;99.90
40822;DHT22;26542;50.836;5.356;2023-01-15T14:18:50;7.70;99.90
40822;DHT22;26542;50.836;5.356;2023-01-15T14:21:46;7.70;99.90
40822;DHT22;26542;50.836;5.356;2023-01-15T14:27:59;7.70;99.90
40822;DHT22;26542;50.836;5.356;2023-01-15T14:36:09;7.70;99.90
40822;DHT22;26542;50.836;5.356;2023-01-15T14:38:35;7.70;99.90
40822;DHT22;26542;50.836;5.356;2023-01-15T14:41:04;7.80;99.90
40822;DHT22;26542;50.836;5.356;2023-01-15T14:43:34;7.80;99.90
40822;DHT22;26542;50.836;5.356;2023-01-15T14:46:23;7.70;99.90
40822;DHT22;26542;50.836;5.356;2023-01-15T14:48:50;7.70;99.90
40822;DHT22;26542;50.836;5.356;2023-01-15T14:51:23;7.70;99.90
40822;DHT22;26542;50.836;5.356;2023-01-15T14:54:12;7.70;99.90
40822;DHT22;26542;50.836;5.356;2023-01-15T14:56:47;7.60;99.90
40822;DHT22;26542;50.836;5.356;2023-01-15T14:59:21;7.60;99.90
40822;DHT22;26542;50.836;5.356;2023-01-15T15:02:13;7.70;99.90
40822;DHT22;26542;50.836;5.356;2023-01-15T15:07:22;7.70;99.90
40822;DHT22;26542;50.836;5.356;2023-01-15T15:15:58;7.70;99.90
40822;DHT22;26542;50.836;5.356;2023-01-15T15:18:36;7.60;99.90
40822;DHT22;26542;50.836;5.356;2023-01-15T15:21:23;7.70;99.90
40822;DHT22;26542;50.836;5.356;2023-01-15T15:26:39;7.70;99.90
40822;DHT22;26542;50.836;5.356;2023-01-15T15:29:11;7.60;99.90
40822;DHT22;26542;50.836;5.356;2023-01-15T15:31:52;7.70;99.90
40822;DHT22;26542;50.836;5.356;2023-01-15T15:34:30;7.70;99.90
40822;DHT22;26542;50.836;5.356;2023-01-15T15:37:02;7.70;99.90
40822;DHT22;26542;50.836;5.356;2023-01-15T15:39:33;7.60;99.90
40822;DHT22;26542;50.836;5.356;2023-01-15T15:42:00;7.60;99.90
40822;DHT22;26542;50.836;5.356;2023-01-15T15:44:54;7.60;99.90
40822;DHT22;26542;50.836;5.356;2023-01-15T15:47:41;7.50;99.90
40822;DHT22;26542;50.836;5.356;2023-01-15T15:50:29;7.40;99.90
40822;DHT22;26542;50.836;5.356;2023-01-15T15:52:56;7.50;99.90
40822;DHT22;26542;50.836;5.356;2023-01-15T15:55:24;7.40;99.90
40822;DHT22;26542;50.836;5.356;2023-01-15T15:57:57;7.40;99.90
40822;DHT22;26542;50.836;5.356;2023-01-15T16:00:38;7.30;99.90
40822;DHT22;26542;50.836;5.356;2023-01-15T16:03:20;7.20;99.90
40822;DHT22;26542;50.836;5.356;2023-01-15T16:08:25;7.20;99.90
40822;DHT22;26542;50.836;5.356;2023-01-15T16:10:54;7.10;99.90
40822;DHT22;26542;50.836;5.356;2023-01-15T16:13:34;7.10;99.90
40822;DHT22;26542;50.836;5.356;2023-01-15T16:16:02;7.10;99.90
40822;DHT22;26542;50.836;5.356;2023-01-15T16:18:35;7.00;99.90
40822;DHT22;26542;50.836;5.356;2023-01-15T16:21:06;7.10;99.90
40822;DHT22;26542;50.836;5.356;2023-01-15T16:23:32;7.10;99.90
40822;DHT22;26542;50.836;5.356;2023-01-15T16:26:07;7.20;99.90
40822;DHT22;26542;50.836;5.356;2023-01-15T16:28:38;7.10;99.90
40822;DHT22;26542;50.836;5.356;2023-01-15T16:31:08;7.00;99.90
40822;DHT22;26542;50.836;5.356;2023-01-15T16:33:36;7.00;99.90
40822;DHT22;26542;50.836;5.356;2023-01-15T16:36:04;7.00;99.90
40822;DHT22;26542;50.836;5.356;2023-01-15T16:38:33;7.00;99.90
40822;DHT22;26542;50.836;5.356;2023-01-15T16:41:00;7.00;99.90
40822;DHT22;26542;50.836;5.356;2023-01-15T16:43:26;7.00;99.90
40822;DHT22;26542;50.836;5.356;2023-01-15T16:48:32;7.00;99.90
40822;DHT22;26542;50.836;5.356;2023-01-15T16:51:28;7.00;99.90
40822;DHT22;26542;50.836;5.356;2023-01-15T16:53:58;6.90;99.90
40822;DHT22;26542;50.836;5.356;2023-01-15T16:56:49;6.90;99.90
40822;DHT22;26542;50.836;5.356;2023-01-15T17:01:50;6.70;99.90
40822;DHT22;26542;50.836;5.356;2023-01-15T17:04:29;6.70;99.90
40822;DHT22;26542;50.836;5.356;2023-01-15T17:07:00;6.70;99.90
40822;DHT22;26542;50.836;5.356;2023-01-15T17:09:27;6.70;99.90
40822;DHT22;26542;50.836;5.356;2023-01-15T17:11:55;6.70;99.90
40822;DHT22;26542;50.836;5.356;2023-01-15T17:14:25;6.70;99.90
40822;DHT22;26542;50.836;5.356;2023-01-15T17:19:39;6.70;99.90
40822;DHT22;26542;50.836;5.356;2023-01-15T17:22:09;6.80;99.90
40822;DHT22;26542;50.836;5.356;2023-01-15T17:24:47;6.80;99.90
40822;DHT22;26542;50.836;5.356;2023-01-15T17:27:13;6.80;99.90
40822;DHT22;26542;50.836;5.356;2023-01-15T17:29:39;6.80;99.90
40822;DHT22;26542;50.836;5.356;2023-01-15T17:32:04;6.90;99.90
40822;DHT22;26542;50.836;5.356;2023-01-15T17:34:30;6.90;99.90
40822;DHT22;26542;50.836;5.356;2023-01-15T17:36:58;6.90;99.90
40822;DHT22;26542;50.836;5.356;2023-01-15T17:39:23;6.80;99.90
40822;DHT22;26542;50.836;5.356;2023-01-15T17:41:49;6.80;99.90
40822;DHT22;26542;50.836;5.356;2023-01-15T17:44:15;6.90;99.90
40822;DHT22;26542;50.836;5.356;2023-01-15T17:46:40;6.80;99.90
40822;DHT22;26542;50.836;5.356;2023-01-15T17:49:06;6.90;99.90
40822;DHT22;26542;50.836;5.356;2023-01-15T17:51:32;6.90;99.90
40822;DHT22;26542;50.836;5.356;2023-01-15T17:53:57;6.90;99.90
40822;DHT22;26542;50.836;5.356;2023-01-15T17:56:23;6.90;99.90
40822;DHT22;26542;50.836;5.356;2023-01-15T17:59:10;7.00;99.90
40822;DHT22;26542;50.836;5.356;2023-01-15T18:01:54;7.10;99.90
40822;DHT22;26542;50.836;5.356;2023-01-15T18:04:43;7.10;99.90
40822;DHT22;26542;50.836;5.356;2023-01-15T18:07:33;7.20;99.90
40822;DHT22;26542;50.836;5.356;2023-01-15T18:10:06;7.20;99.90
40822;DHT22;26542;50.836;5.356;2023-01-15T18:12:32;7.30;99.90
40822;DHT22;26542;50.836;5.356;2023-01-15T18:15:02;7.30;99.90